Terminal Aerodrome Forecast
Issued by NWS

Home | Current Version | Previous Version | Graphics & Text | Print | Product List | Glossary On
Versions: 1 2 3 4 5 6 7 8 9 10 11 12 13 14 15 16
671
FTUS43 KBIS 141554 AAA
TAFMOT
TAF AMD
KMOT 141554Z 1416/1512 36008KT P6SM BKN008
     FM141800 35012G20KT P6SM BKN012
     FM142100 30008KT P6SM FEW040 FEW250
     FM150200 24005KT P6SM SKC=

USA.gov is the U.S. government's official web portal to all federal, state and local government web resources and services.